sensor_id;sensor_type;location;lat;lon;timestamp;temperature;humidity
10417;DHT22;62605;49.432;8.680;2023-03-01T00:00:19;1.30;1.00
10417;DHT22;62605;49.432;8.680;2023-03-01T00:02:46;1.30;1.00
10417;DHT22;62605;49.432;8.680;2023-03-01T00:05:15;1.40;1.00
10417;DHT22;62605;49.432;8.680;2023-03-01T00:07:42;1.60;1.00
10417;DHT22;62605;49.432;8.680;2023-03-01T00:10:10;1.50;1.00
10417;DHT22;62605;49.432;8.680;2023-03-01T00:12:37;1.40;1.00
10417;DHT22;62605;49.432;8.680;2023-03-01T00:15:05;1.40;1.00
10417;DHT22;62605;49.432;8.680;2023-03-01T00:17:33;1.40;1.00
10417;DHT22;62605;49.432;8.680;2023-03-01T00:20:00;1.60;1.00
10417;DHT22;62605;49.432;8.680;2023-03-01T00:22:28;1.60;1.00
10417;DHT22;62605;49.432;8.680;2023-03-01T00:24:55;1.50;1.00
10417;DHT22;62605;49.432;8.680;2023-03-01T00:27:22;1.50;1.00
10417;DHT22;62605;49.432;8.680;2023-03-01T00:29:49;1.50;1.00
10417;DHT22;62605;49.432;8.680;2023-03-01T00:32:16;1.50;1.00
10417;DHT22;62605;49.432;8.680;2023-03-01T00:34:43;1.50;1.00
10417;DHT22;62605;49.432;8.680;2023-03-01T00:37:19;1.40;1.00
10417;DHT22;62605;49.432;8.680;2023-03-01T00:39:48;1.40;1.00
10417;DHT22;62605;49.432;8.680;2023-03-01T00:42:15;1.50;1.00
10417;DHT22;62605;49.432;8.680;2023-03-01T00:44:42;1.40;1.00
10417;DHT22;62605;49.432;8.680;2023-03-01T00:47:09;1.40;1.00
10417;DHT22;62605;49.432;8.680;2023-03-01T00:49:36;1.30;1.00
10417;DHT22;62605;49.432;8.680;2023-03-01T00:52:04;1.40;1.00
10417;DHT22;62605;49.432;8.680;2023-03-01T00:54:31;1.30;1.00
10417;DHT22;62605;49.432;8.680;2023-03-01T00:56:59;1.20;1.00
10417;DHT22;62605;49.432;8.680;2023-03-01T00:59:26;1.20;1.00
10417;DHT22;62605;49.432;8.680;2023-03-01T01:01:53;1.30;1.00
10417;DHT22;62605;49.432;8.680;2023-03-01T01:04:20;1.40;1.00
10417;DHT22;62605;49.432;8.680;2023-03-01T01:06:47;1.50;1.00
10417;DHT22;62605;49.432;8.680;2023-03-01T01:09:17;1.50;1.00
10417;DHT22;62605;49.432;8.680;2023-03-01T01:11:45;1.50;1.00
10417;DHT22;62605;49.432;8.680;2023-03-01T01:14:14;1.60;1.00
10417;DHT22;62605;49.432;8.680;2023-03-01T01:16:41;1.60;1.00
10417;DHT22;62605;49.432;8.680;2023-03-01T01:19:11;1.60;1.00
10417;DHT22;62605;49.432;8.680;2023-03-01T01:21:40;1.60;1.00
10417;DHT22;62605;49.432;8.680;2023-03-01T01:24:09;1.60;1.00
10417;DHT22;62605;49.432;8.680;2023-03-01T01:26:38;1.70;1.00
10417;DHT22;62605;49.432;8.680;2023-03-01T01:29:08;1.70;1.00
10417;DHT22;62605;49.432;8.680;2023-03-01T01:35:00;1.70;1.00
10417;DHT22;62605;49.432;8.680;2023-03-01T01:37:27;1.70;1.00
10417;DHT22;62605;49.432;8.680;2023-03-01T01:39:57;1.60;1.00
10417;DHT22;62605;49.432;8.680;2023-03-01T01:42:24;1.60;1.00
10417;DHT22;62605;49.432;8.680;2023-03-01T01:45:26;1.50;1.00
10417;DHT22;62605;49.432;8.680;2023-03-01T01:47:56;1.50;1.00
10417;DHT22;62605;49.432;8.680;2023-03-01T01:50:25;1.40;1.00
10417;DHT22;62605;49.432;8.680;2023-03-01T01:52:59;1.40;1.00
10417;DHT22;62605;49.432;8.680;2023-03-01T01:55:27;1.50;1.00
10417;DHT22;62605;49.432;8.680;2023-03-01T01:57:58;1.50;1.00
10417;DHT22;62605;49.432;8.680;2023-03-01T02:00:28;1.20;1.00
10417;DHT22;62605;49.432;8.680;2023-03-01T02:02:59;1.30;1.00
10417;DHT22;62605;49.432;8.680;2023-03-01T02:05:34;1.30;1.00
10417;DHT22;62605;49.432;8.680;2023-03-01T02:08:02;1.30;1.00
10417;DHT22;62605;49.432;8.680;2023-03-01T02:10:32;1.40;1.00
10417;DHT22;62605;49.432;8.680;2023-03-01T02:13:01;1.40;1.00
10417;DHT22;62605;49.432;8.680;2023-03-01T02:15:32;1.30;1.00
10417;DHT22;62605;49.432;8.680;2023-03-01T02:17:59;1.30;1.00
10417;DHT22;62605;49.432;8.680;2023-03-01T02:20:34;1.50;1.00
10417;DHT22;62605;49.432;8.680;2023-03-01T02:23:04;1.50;1.00
10417;DHT22;62605;49.432;8.680;2023-03-01T02:25:40;1.50;1.00
10417;DHT22;62605;49.432;8.680;2023-03-01T02:28:31;1.40;1.00
10417;DHT22;62605;49.432;8.680;2023-03-01T02:30:59;1.50;1.00
10417;DHT22;62605;49.432;8.680;2023-03-01T02:33:45;1.40;1.00
10417;DHT22;62605;49.432;8.680;2023-03-01T02:36:17;1.30;1.00
10417;DHT22;62605;49.432;8.680;2023-03-01T02:38:46;1.50;1.00
10417;DHT22;62605;49.432;8.680;2023-03-01T02:41:15;1.50;1.00
10417;DHT22;62605;49.432;8.680;2023-03-01T02:43:45;1.50;1.00
10417;DHT22;62605;49.432;8.680;2023-03-01T02:46:17;1.60;1.00
10417;DHT22;62605;49.432;8.680;2023-03-01T02:48:47;1.40;1.00
10417;DHT22;62605;49.432;8.680;2023-03-01T02:51:24;1.50;1.00
10417;DHT22;62605;49.432;8.680;2023-03-01T02:54:04;1.20;1.00
10417;DHT22;62605;49.432;8.680;2023-03-01T02:56:35;1.30;1.00
10417;DHT22;62605;49.432;8.680;2023-03-01T02:59:04;1.20;1.00
10417;DHT22;62605;49.432;8.680;2023-03-01T03:01:31;1.20;1.00
10417;DHT22;62605;49.432;8.680;2023-03-01T03:04:04;1.20;1.00
10417;DHT22;62605;49.432;8.680;2023-03-01T03:06:31;1.10;1.00
10417;DHT22;62605;49.432;8.680;2023-03-01T03:08:59;1.00;1.00
10417;DHT22;62605;49.432;8.680;2023-03-01T03:11:26;1.10;1.00
10417;DHT22;62605;49.432;8.680;2023-03-01T03:13:54;1.20;1.00
10417;DHT22;62605;49.432;8.680;2023-03-01T03:16:23;1.30;1.00
10417;DHT22;62605;49.432;8.680;2023-03-01T03:18:51;1.40;1.00
10417;DHT22;62605;49.432;8.680;2023-03-01T03:21:18;1.30;1.00
10417;DHT22;62605;49.432;8.680;2023-03-01T03:23:45;1.50;1.00
10417;DHT22;62605;49.432;8.680;2023-03-01T03:26:12;1.30;1.00
10417;DHT22;62605;49.432;8.680;2023-03-01T03:28:40;1.30;1.00
10417;DHT22;62605;49.432;8.680;2023-03-01T03:31:08;1.30;1.00
10417;DHT22;62605;49.432;8.680;2023-03-01T03:33:36;1.30;1.00
10417;DHT22;62605;49.432;8.680;2023-03-01T03:36:04;1.30;1.00
10417;DHT22;62605;49.432;8.680;2023-03-01T03:38:32;1.20;1.00
10417;DHT22;62605;49.432;8.680;2023-03-01T03:41:01;1.20;1.00
10417;DHT22;62605;49.432;8.680;2023-03-01T03:43:40;1.10;1.00
10417;DHT22;62605;49.432;8.680;2023-03-01T03:46:10;1.10;1.00
10417;DHT22;62605;49.432;8.680;2023-03-01T03:48:40;1.10;1.00
10417;DHT22;62605;49.432;8.680;2023-03-01T03:51:45;1.00;1.00
10417;DHT22;62605;49.432;8.680;2023-03-01T03:54:19;1.00;1.00
10417;DHT22;62605;49.432;8.680;2023-03-01T03:56:48;1.00;1.00
10417;DHT22;62605;49.432;8.680;2023-03-01T03:59:16;1.10;1.00
10417;DHT22;62605;49.432;8.680;2023-03-01T04:01:48;0.90;1.00
10417;DHT22;62605;49.432;8.680;2023-03-01T04:04:37;0.90;1.00
10417;DHT22;62605;49.432;8.680;2023-03-01T04:07:08;0.90;1.00
10417;DHT22;62605;49.432;8.680;2023-03-01T04:09:36;1.00;1.00
10417;DHT22;62605;49.432;8.680;2023-03-01T04:12:04;0.90;1.00
10417;DHT22;62605;49.432;8.680;2023-03-01T04:14:33;0.90;1.00
10417;DHT22;62605;49.432;8.680;2023-03-01T04:17:09;0.90;1.00
10417;DHT22;62605;49.432;8.680;2023-03-01T04:19:41;0.90;1.00
10417;DHT22;62605;49.432;8.680;2023-03-01T04:22:12;0.90;1.00
10417;DHT22;62605;49.432;8.680;2023-03-01T04:24:45;0.90;1.00
10417;DHT22;62605;49.432;8.680;2023-03-01T04:27:13;0.90;1.00
10417;DHT22;62605;49.432;8.680;2023-03-01T04:29:40;1.00;1.00
10417;DHT22;62605;49.432;8.680;2023-03-01T04:32:08;1.00;1.00
10417;DHT22;62605;49.432;8.680;2023-03-01T04:34:36;1.00;1.00
10417;DHT22;62605;49.432;8.680;2023-03-01T04:37:07;1.00;1.00
10417;DHT22;62605;49.432;8.680;2023-03-01T04:39:34;0.80;1.00
10417;DHT22;62605;49.432;8.680;2023-03-01T04:42:12;0.80;1.00
10417;DHT22;62605;49.432;8.680;2023-03-01T04:44:42;0.70;1.00
10417;DHT22;62605;49.432;8.680;2023-03-01T04:47:14;0.70;1.00
10417;DHT22;62605;49.432;8.680;2023-03-01T04:49:50;0.80;1.00
10417;DHT22;62605;49.432;8.680;2023-03-01T04:52:18;0.80;1.00
10417;DHT22;62605;49.432;8.680;2023-03-01T04:54:50;0.90;1.00
10417;DHT22;62605;49.432;8.680;2023-03-01T04:57:17;0.80;1.00
10417;DHT22;62605;49.432;8.680;2023-03-01T04:59:47;0.80;1.00
10417;DHT22;62605;49.432;8.680;2023-03-01T05:02:15;0.60;1.00
10417;DHT22;62605;49.432;8.680;2023-03-01T05:04:53;0.80;1.00
10417;DHT22;62605;49.432;8.680;2023-03-01T05:07:31;0.90;1.00
10417;DHT22;62605;49.432;8.680;2023-03-01T05:10:01;1.00;1.00
10417;DHT22;62605;49.432;8.680;2023-03-01T05:12:35;0.80;1.00
10417;DHT22;62605;49.432;8.680;2023-03-01T05:15:06;0.80;1.00
10417;DHT22;62605;49.432;8.680;2023-03-01T05:17:37;0.80;1.00
10417;DHT22;62605;49.432;8.680;2023-03-01T05:20:11;0.80;1.00
10417;DHT22;62605;49.432;8.680;2023-03-01T05:22:39;0.70;1.00
10417;DHT22;62605;49.432;8.680;2023-03-01T05:25:12;0.60;1.00
10417;DHT22;62605;49.432;8.680;2023-03-01T05:27:42;0.70;1.00
10417;DHT22;62605;49.432;8.680;2023-03-01T05:30:10;0.80;1.00
10417;DHT22;62605;49.432;8.680;2023-03-01T05:32:49;0.70;1.00
10417;DHT22;62605;49.432;8.680;2023-03-01T05:35:22;0.80;1.00
10417;DHT22;62605;49.432;8.680;2023-03-01T05:37:50;0.70;1.00
10417;DHT22;62605;49.432;8.680;2023-03-01T05:40:19;0.80;1.00
10417;DHT22;62605;49.432;8.680;2023-03-01T05:42:48;0.90;1.00
10417;DHT22;62605;49.432;8.680;2023-03-01T05:45:16;0.80;1.00
10417;DHT22;62605;49.432;8.680;2023-03-01T05:47:45;0.80;1.00
10417;DHT22;62605;49.432;8.680;2023-03-01T05:50:14;1.00;1.00
10417;DHT22;62605;49.432;8.680;2023-03-01T05:52:46;0.90;1.00
10417;DHT22;62605;49.432;8.680;2023-03-01T05:55:15;1.00;1.00
10417;DHT22;62605;49.432;8.680;2023-03-01T05:57:42;0.80;1.00
10417;DHT22;62605;49.432;8.680;2023-03-01T06:00:10;0.80;1.00
10417;DHT22;62605;49.432;8.680;2023-03-01T06:02:37;1.00;1.00
10417;DHT22;62605;49.432;8.680;2023-03-01T06:05:07;0.90;1.00
10417;DHT22;62605;49.432;8.680;2023-03-01T06:07:35;0.80;1.00
10417;DHT22;62605;49.432;8.680;2023-03-01T06:10:04;0.90;1.00
10417;DHT22;62605;49.432;8.680;2023-03-01T06:15:25;1.00;1.00
10417;DHT22;62605;49.432;8.680;2023-03-01T06:17:54;1.10;1.00
10417;DHT22;62605;49.432;8.680;2023-03-01T06:20:29;1.00;1.00
10417;DHT22;62605;49.432;8.680;2023-03-01T06:22:58;1.00;1.00
10417;DHT22;62605;49.432;8.680;2023-03-01T06:25:39;0.90;1.00
10417;DHT22;62605;49.432;8.680;2023-03-01T06:28:06;1.00;1.00
10417;DHT22;62605;49.432;8.680;2023-03-01T06:30:33;0.90;1.00
10417;DHT22;62605;49.432;8.680;2023-03-01T06:33:00;1.00;1.00
10417;DHT22;62605;49.432;8.680;2023-03-01T06:35:30;1.00;1.00
10417;DHT22;62605;49.432;8.680;2023-03-01T06:37:58;0.80;1.00
10417;DHT22;62605;49.432;8.680;2023-03-01T06:40:25;0.90;1.00
10417;DHT22;62605;49.432;8.680;2023-03-01T06:42:54;0.80;1.00
10417;DHT22;62605;49.432;8.680;2023-03-01T06:45:21;0.70;1.00
10417;DHT22;62605;49.432;8.680;2023-03-01T06:47:48;0.80;1.00
10417;DHT22;62605;49.432;8.680;2023-03-01T06:50:16;0.80;1.00
10417;DHT22;62605;49.432;8.680;2023-03-01T06:52:44;0.80;1.00
10417;DHT22;62605;49.432;8.680;2023-03-01T06:55:12;0.80;1.00
10417;DHT22;62605;49.432;8.680;2023-03-01T06:57:39;0.80;1.00
10417;DHT22;62605;49.432;8.680;2023-03-01T07:00:09;0.80;1.00
10417;DHT22;62605;49.432;8.680;2023-03-01T07:02:37;0.70;1.00
10417;DHT22;62605;49.432;8.680;2023-03-01T07:05:04;0.80;1.00
10417;DHT22;62605;49.432;8.680;2023-03-01T07:07:31;0.70;1.00
10417;DHT22;62605;49.432;8.680;2023-03-01T07:09:58;0.70;1.00
10417;DHT22;62605;49.432;8.680;2023-03-01T07:12:25;0.70;1.00
10417;DHT22;62605;49.432;8.680;2023-03-01T07:14:52;0.80;1.00
10417;DHT22;62605;49.432;8.680;2023-03-01T07:17:21;0.80;1.00
10417;DHT22;62605;49.432;8.680;2023-03-01T07:19:48;1.00;1.00
10417;DHT22;62605;49.432;8.680;2023-03-01T07:22:15;1.00;1.00
10417;DHT22;62605;49.432;8.680;2023-03-01T07:24:42;1.00;1.00
10417;DHT22;62605;49.432;8.680;2023-03-01T07:27:09;1.00;1.00
10417;DHT22;62605;49.432;8.680;2023-03-01T07:29:37;1.20;1.00
10417;DHT22;62605;49.432;8.680;2023-03-01T07:32:04;1.20;1.00
10417;DHT22;62605;49.432;8.680;2023-03-01T07:34:33;1.20;1.00
10417;DHT22;62605;49.432;8.680;2023-03-01T07:37:00;1.20;1.00
10417;DHT22;62605;49.432;8.680;2023-03-01T07:39:28;1.30;1.00
10417;DHT22;62605;49.432;8.680;2023-03-01T07:41:55;1.30;1.00
10417;DHT22;62605;49.432;8.680;2023-03-01T07:44:23;1.30;1.00
10417;DHT22;62605;49.432;8.680;2023-03-01T07:46:50;1.40;1.00
10417;DHT22;62605;49.432;8.680;2023-03-01T07:49:17;1.50;1.00
10417;DHT22;62605;49.432;8.680;2023-03-01T07:51:46;1.60;1.00
10417;DHT22;62605;49.432;8.680;2023-03-01T07:54:13;1.70;1.00
10417;DHT22;62605;49.432;8.680;2023-03-01T07:56:40;1.70;1.00
10417;DHT22;62605;49.432;8.680;2023-03-01T07:59:07;1.70;1.00
10417;DHT22;62605;49.432;8.680;2023-03-01T08:01:34;1.80;1.00
10417;DHT22;62605;49.432;8.680;2023-03-01T08:04:01;1.80;1.00
10417;DHT22;62605;49.432;8.680;2023-03-01T08:06:30;1.80;1.00
10417;DHT22;62605;49.432;8.680;2023-03-01T08:08:58;1.90;1.00
10417;DHT22;62605;49.432;8.680;2023-03-01T08:11:25;2.00;1.00
10417;DHT22;62605;49.432;8.680;2023-03-01T08:13:54;2.00;1.00
10417;DHT22;62605;49.432;8.680;2023-03-01T08:16:35;2.20;1.00
10417;DHT22;62605;49.432;8.680;2023-03-01T08:19:18;2.20;1.00
10417;DHT22;62605;49.432;8.680;2023-03-01T08:21:46;2.30;1.00
10417;DHT22;62605;49.432;8.680;2023-03-01T08:24:14;2.30;1.00
10417;DHT22;62605;49.432;8.680;2023-03-01T08:26:41;2.40;1.00
10417;DHT22;62605;49.432;8.680;2023-03-01T08:29:08;2.50;1.00
10417;DHT22;62605;49.432;8.680;2023-03-01T08:31:38;2.60;1.00
10417;DHT22;62605;49.432;8.680;2023-03-01T08:34:07;2.60;1.00
10417;DHT22;62605;49.432;8.680;2023-03-01T08:36:36;2.70;1.00
10417;DHT22;62605;49.432;8.680;2023-03-01T08:39:04;2.90;1.00
10417;DHT22;62605;49.432;8.680;2023-03-01T08:41:32;2.80;1.00
10417;DHT22;62605;49.432;8.680;2023-03-01T08:43:59;2.80;1.00
10417;DHT22;62605;49.432;8.680;2023-03-01T08:46:27;2.90;1.00
10417;DHT22;62605;49.432;8.680;2023-03-01T08:48:54;2.90;1.00
10417;DHT22;62605;49.432;8.680;2023-03-01T08:51:22;3.10;1.00
10417;DHT22;62605;49.432;8.680;2023-03-01T08:53:50;3.10;1.00
10417;DHT22;62605;49.432;8.680;2023-03-01T08:56:18;3.20;1.00
10417;DHT22;62605;49.432;8.680;2023-03-01T08:58:47;3.20;1.00
10417;DHT22;62605;49.432;8.680;2023-03-01T09:01:16;3.20;1.00
10417;DHT22;62605;49.432;8.680;2023-03-01T09:03:43;3.40;1.00
10417;DHT22;62605;49.432;8.680;2023-03-01T09:06:11;3.50;1.00
10417;DHT22;62605;49.432;8.680;2023-03-01T09:08:40;3.60;1.00
10417;DHT22;62605;49.432;8.680;2023-03-01T09:11:10;3.50;1.00
10417;DHT22;62605;49.432;8.680;2023-03-01T09:13:37;3.70;1.00
10417;DHT22;62605;49.432;8.680;2023-03-01T09:16:08;3.60;1.00
10417;DHT22;62605;49.432;8.680;2023-03-01T09:18:35;3.60;1.00
10417;DHT22;62605;49.432;8.680;2023-03-01T09:21:04;3.80;1.00
10417;DHT22;62605;49.432;8.680;2023-03-01T09:23:34;4.00;1.00
10417;DHT22;62605;49.432;8.680;2023-03-01T09:26:02;4.00;1.00
10417;DHT22;62605;49.432;8.680;2023-03-01T09:28:28;4.00;1.00
10417;DHT22;62605;49.432;8.680;2023-03-01T09:30:58;4.00;1.00
10417;DHT22;62605;49.432;8.680;2023-03-01T09:33:28;3.90;1.00
10417;DHT22;62605;49.432;8.680;2023-03-01T09:35:56;4.00;1.00
10417;DHT22;62605;49.432;8.680;2023-03-01T09:38:24;4.20;1.00
10417;DHT22;62605;49.432;8.680;2023-03-01T09:40:51;4.10;1.00
10417;DHT22;62605;49.432;8.680;2023-03-01T09:43:21;4.30;1.00
10417;DHT22;62605;49.432;8.680;2023-03-01T09:45:51;4.30;1.00
10417;DHT22;62605;49.432;8.680;2023-03-01T09:48:20;4.30;1.00
10417;DHT22;62605;49.432;8.680;2023-03-01T09:50:51;4.50;1.00
10417;DHT22;62605;49.432;8.680;2023-03-01T09:53:20;4.40;1.00
10417;DHT22;62605;49.432;8.680;2023-03-01T09:55:51;4.50;1.00
10417;DHT22;62605;49.432;8.680;2023-03-01T09:58:44;4.60;1.00
10417;DHT22;62605;49.432;8.680;2023-03-01T10:01:29;4.40;1.00
10417;DHT22;62605;49.432;8.680;2023-03-01T10:04:09;4.50;1.00
10417;DHT22;62605;49.432;8.680;2023-03-01T10:06:47;4.40;1.00
10417;DHT22;62605;49.432;8.680;2023-03-01T10:09:25;4.60;1.00
10417;DHT22;62605;49.432;8.680;2023-03-01T10:11:56;4.90;1.00
10417;DHT22;62605;49.432;8.680;2023-03-01T10:14:30;4.80;1.00
10417;DHT22;62605;49.432;8.680;2023-03-01T10:17:02;4.90;1.00
10417;DHT22;62605;49.432;8.680;2023-03-01T10:19:32;5.00;1.00
10417;DHT22;62605;49.432;8.680;2023-03-01T10:22:04;5.00;1.00
10417;DHT22;62605;49.432;8.680;2023-03-01T10:24:35;5.10;1.00
10417;DHT22;62605;49.432;8.680;2023-03-01T10:27:06;5.10;1.00
10417;DHT22;62605;49.432;8.680;2023-03-01T10:29:39;5.20;1.00
10417;DHT22;62605;49.432;8.680;2023-03-01T10:32:10;5.30;1.00
10417;DHT22;62605;49.432;8.680;2023-03-01T10:34:37;5.50;1.00
10417;DHT22;62605;49.432;8.680;2023-03-01T10:37:11;5.70;1.00
10417;DHT22;62605;49.432;8.680;2023-03-01T10:39:55;5.70;1.00
10417;DHT22;62605;49.432;8.680;2023-03-01T10:42:27;5.90;1.00
10417;DHT22;62605;49.432;8.680;2023-03-01T10:44:55;5.80;1.00
10417;DHT22;62605;49.432;8.680;2023-03-01T10:47:24;5.80;1.00
10417;DHT22;62605;49.432;8.680;2023-03-01T10:49:57;5.70;1.00
10417;DHT22;62605;49.432;8.680;2023-03-01T10:52:29;5.60;1.00
10417;DHT22;62605;49.432;8.680;2023-03-01T10:54:58;5.80;1.00
10417;DHT22;62605;49.432;8.680;2023-03-01T10:57:35;5.90;1.00
10417;DHT22;62605;49.432;8.680;2023-03-01T11:00:19;5.80;1.00
10417;DHT22;62605;49.432;8.680;2023-03-01T11:02:49;5.90;1.00
10417;DHT22;62605;49.432;8.680;2023-03-01T11:05:21;6.00;1.00
10417;DHT22;62605;49.432;8.680;2023-03-01T11:07:52;6.30;1.00
10417;DHT22;62605;49.432;8.680;2023-03-01T11:10:23;6.30;1.00
10417;DHT22;62605;49.432;8.680;2023-03-01T11:12:51;6.40;1.00
10417;DHT22;62605;49.432;8.680;2023-03-01T11:15:25;6.60;1.00
10417;DHT22;62605;49.432;8.680;2023-03-01T11:17:53;6.70;1.00
10417;DHT22;62605;49.432;8.680;2023-03-01T11:20:25;6.60;1.00
10417;DHT22;62605;49.432;8.680;2023-03-01T11:22:58;6.70;1.00
10417;DHT22;62605;49.432;8.680;2023-03-01T11:25:30;6.60;1.00
10417;DHT22;62605;49.432;8.680;2023-03-01T11:27:58;6.70;1.00
10417;DHT22;62605;49.432;8.680;2023-03-01T11:30:30;6.90;1.00
10417;DHT22;62605;49.432;8.680;2023-03-01T11:33:13;6.80;1.00
10417;DHT22;62605;49.432;8.680;2023-03-01T11:35:47;6.70;1.00
10417;DHT22;62605;49.432;8.680;2023-03-01T11:38:22;6.90;1.00
10417;DHT22;62605;49.432;8.680;2023-03-01T11:40:54;7.00;1.00
10417;DHT22;62605;49.432;8.680;2023-03-01T11:43:28;6.60;1.00
10417;DHT22;62605;49.432;8.680;2023-03-01T11:49:08;7.00;1.00
10417;DHT22;62605;49.432;8.680;2023-03-01T11:51:47;7.10;1.00
10417;DHT22;62605;49.432;8.680;2023-03-01T11:54:31;7.00;1.00
10417;DHT22;62605;49.432;8.680;2023-03-01T11:57:10;7.10;1.00
10417;DHT22;62605;49.432;8.680;2023-03-01T11:59:54;7.10;1.00
10417;DHT22;62605;49.432;8.680;2023-03-01T12:02:46;7.00;1.00
10417;DHT22;62605;49.432;8.680;2023-03-01T12:05:40;7.30;1.00
10417;DHT22;62605;49.432;8.680;2023-03-01T12:08:17;7.30;1.00
10417;DHT22;62605;49.432;8.680;2023-03-01T12:10:54;7.50;1.00
10417;DHT22;62605;49.432;8.680;2023-03-01T12:13:46;7.60;1.00
10417;DHT22;62605;49.432;8.680;2023-03-01T12:16:31;7.60;1.00
10417;DHT22;62605;49.432;8.680;2023-03-01T12:19:20;7.90;1.00
10417;DHT22;62605;49.432;8.680;2023-03-01T12:22:07;7.80;1.00
10417;DHT22;62605;49.432;8.680;2023-03-01T12:27:46;7.90;1.00
10417;DHT22;62605;49.432;8.680;2023-03-01T12:30:26;8.00;1.00
10417;DHT22;62605;49.432;8.680;2023-03-01T12:33:08;8.00;1.00
10417;DHT22;62605;49.432;8.680;2023-03-01T12:35:51;7.90;1.00
10417;DHT22;62605;49.432;8.680;2023-03-01T12:38:31;7.90;1.00
10417;DHT22;62605;49.432;8.680;2023-03-01T12:41:33;8.00;1.00
10417;DHT22;62605;49.432;8.680;2023-03-01T12:44:11;8.10;1.00
10417;DHT22;62605;49.432;8.680;2023-03-01T12:46:52;8.00;1.00
10417;DHT22;62605;49.432;8.680;2023-03-01T12:49:34;8.20;1.00
10417;DHT22;62605;49.432;8.680;2023-03-01T12:52:11;7.80;1.00
10417;DHT22;62605;49.432;8.680;2023-03-01T12:54:40;8.00;1.00
10417;DHT22;62605;49.432;8.680;2023-03-01T12:57:13;8.20;1.00
10417;DHT22;62605;49.432;8.680;2023-03-01T12:59:51;8.40;1.00
10417;DHT22;62605;49.432;8.680;2023-03-01T13:02:24;7.70;1.00
10417;DHT22;62605;49.432;8.680;2023-03-01T13:05:14;8.10;1.00
10417;DHT22;62605;49.432;8.680;2023-03-01T13:07:54;8.20;1.00
10417;DHT22;62605;49.432;8.680;2023-03-01T13:10:33;8.30;1.00
10417;DHT22;62605;49.432;8.680;2023-03-01T13:13:13;8.40;1.00
10417;DHT22;62605;49.432;8.680;2023-03-01T13:15:45;8.40;1.00
10417;DHT22;62605;49.432;8.680;2023-03-01T13:18:31;8.20;1.00
10417;DHT22;62605;49.432;8.680;2023-03-01T13:21:00;8.40;1.00
10417;DHT22;62605;49.432;8.680;2023-03-01T13:23:30;8.50;1.00
10417;DHT22;62605;49.432;8.680;2023-03-01T13:26:04;8.40;1.00
10417;DHT22;62605;49.432;8.680;2023-03-01T13:28:40;8.50;1.00
10417;DHT22;62605;49.432;8.680;2023-03-01T13:31:10;8.70;1.00
10417;DHT22;62605;49.432;8.680;2023-03-01T13:33:44;8.70;1.00
10417;DHT22;62605;49.432;8.680;2023-03-01T13:39:27;8.70;1.00
10417;DHT22;62605;49.432;8.680;2023-03-01T13:41:57;8.60;1.00
10417;DHT22;62605;49.432;8.680;2023-03-01T13:44:29;8.70;1.00
10417;DHT22;62605;49.432;8.680;2023-03-01T13:47:02;8.70;1.00
10417;DHT22;62605;49.432;8.680;2023-03-01T13:49:36;8.80;1.00
10417;DHT22;62605;49.432;8.680;2023-03-01T13:52:28;8.50;1.00
10417;DHT22;62605;49.432;8.680;2023-03-01T13:54:57;8.70;1.00
10417;DHT22;62605;49.432;8.680;2023-03-01T13:57:30;8.50;1.00
10417;DHT22;62605;49.432;8.680;2023-03-01T13:59:59;8.50;1.00
10417;DHT22;62605;49.432;8.680;2023-03-01T14:02:27;8.80;1.00
10417;DHT22;62605;49.432;8.680;2023-03-01T14:04:58;8.80;1.00
10417;DHT22;62605;49.432;8.680;2023-03-01T14:07:26;8.50;1.00
10417;DHT22;62605;49.432;8.680;2023-03-01T14:09:57;8.80;1.00
10417;DHT22;62605;49.432;8.680;2023-03-01T14:12:39;8.90;1.00
10417;DHT22;62605;49.432;8.680;2023-03-01T14:15:13;8.70;1.00
10417;DHT22;62605;49.432;8.680;2023-03-01T14:18:00;8.70;1.00
10417;DHT22;62605;49.432;8.680;2023-03-01T14:20:32;8.90;1.00
10417;DHT22;62605;49.432;8.680;2023-03-01T14:23:18;8.90;1.00
10417;DHT22;62605;49.432;8.680;2023-03-01T14:25:48;9.10;1.00
10417;DHT22;62605;49.432;8.680;2023-03-01T14:28:18;9.10;1.00
10417;DHT22;62605;49.432;8.680;2023-03-01T14:30:48;9.10;1.00
10417;DHT22;62605;49.432;8.680;2023-03-01T14:33:24;9.10;1.00
10417;DHT22;62605;49.432;8.680;2023-03-01T14:35:56;9.20;1.00
10417;DHT22;62605;49.432;8.680;2023-03-01T14:38:30;8.90;1.00
10417;DHT22;62605;49.432;8.680;2023-03-01T14:41:00;8.80;1.00
10417;DHT22;62605;49.432;8.680;2023-03-01T14:43:29;8.90;1.00
10417;DHT22;62605;49.432;8.680;2023-03-01T14:45:57;8.90;1.00
10417;DHT22;62605;49.432;8.680;2023-03-01T14:48:28;8.90;1.00
10417;DHT22;62605;49.432;8.680;2023-03-01T14:50:56;8.80;1.00
10417;DHT22;62605;49.432;8.680;2023-03-01T14:53:25;8.60;1.00
10417;DHT22;62605;49.432;8.680;2023-03-01T14:55:54;8.50;1.00
10417;DHT22;62605;49.432;8.680;2023-03-01T14:58:24;8.60;1.00
10417;DHT22;62605;49.432;8.680;2023-03-01T15:00:55;8.80;1.00
10417;DHT22;62605;49.432;8.680;2023-03-01T15:03:31;8.70;1.00
10417;DHT22;62605;49.432;8.680;2023-03-01T15:06:01;8.70;1.00
10417;DHT22;62605;49.432;8.680;2023-03-01T15:08:30;8.70;1.00
10417;DHT22;62605;49.432;8.680;2023-03-01T15:11:03;8.70;1.00
10417;DHT22;62605;49.432;8.680;2023-03-01T15:13:32;8.60;1.00
10417;DHT22;62605;49.432;8.680;2023-03-01T15:16:09;8.70;1.00
10417;DHT22;62605;49.432;8.680;2023-03-01T15:18:44;8.70;1.00
10417;DHT22;62605;49.432;8.680;2023-03-01T15:21:18;8.60;1.00
10417;DHT22;62605;49.432;8.680;2023-03-01T15:23:52;8.50;1.00
10417;DHT22;62605;49.432;8.680;2023-03-01T15:26:30;8.70;1.00
10417;DHT22;62605;49.432;8.680;2023-03-01T15:28:59;8.60;1.00
10417;DHT22;62605;49.432;8.680;2023-03-01T15:31:30;8.60;1.00
10417;DHT22;62605;49.432;8.680;2023-03-01T15:34:22;8.50;1.00
10417;DHT22;62605;49.432;8.680;2023-03-01T15:36:52;8.60;1.00
10417;DHT22;62605;49.432;8.680;2023-03-01T15:39:38;8.60;1.00
10417;DHT22;62605;49.432;8.680;2023-03-01T15:42:12;8.60;1.00
10417;DHT22;62605;49.432;8.680;2023-03-01T15:44:42;8.60;1.00
10417;DHT22;62605;49.432;8.680;2023-03-01T15:47:28;8.60;1.00
10417;DHT22;62605;49.432;8.680;2023-03-01T15:49:59;8.60;1.00
10417;DHT22;62605;49.432;8.680;2023-03-01T15:52:34;8.50;1.00
10417;DHT22;62605;49.432;8.680;2023-03-01T15:55:12;8.40;1.00
10417;DHT22;62605;49.432;8.680;2023-03-01T15:57:40;8.50;1.00
10417;DHT22;62605;49.432;8.680;2023-03-01T16:00:10;8.50;1.00
10417;DHT22;62605;49.432;8.680;2023-03-01T16:02:39;8.40;1.00
10417;DHT22;62605;49.432;8.680;2023-03-01T16:05:17;8.40;1.00
10417;DHT22;62605;49.432;8.680;2023-03-01T16:07:45;8.30;1.00
10417;DHT22;62605;49.432;8.680;2023-03-01T16:10:12;8.30;1.00
10417;DHT22;62605;49.432;8.680;2023-03-01T16:12:40;8.40;1.00
10417;DHT22;62605;49.432;8.680;2023-03-01T16:15:13;8.30;1.00
10417;DHT22;62605;49.432;8.680;2023-03-01T16:17:42;8.20;1.00
10417;DHT22;62605;49.432;8.680;2023-03-01T16:20:11;8.20;1.00
10417;DHT22;62605;49.432;8.680;2023-03-01T16:22:41;8.10;1.00
10417;DHT22;62605;49.432;8.680;2023-03-01T16:25:09;8.00;1.00
10417;DHT22;62605;49.432;8.680;2023-03-01T16:27:36;8.00;1.00
10417;DHT22;62605;49.432;8.680;2023-03-01T16:30:08;7.90;1.00
10417;DHT22;62605;49.432;8.680;2023-03-01T16:32:38;7.90;1.00
10417;DHT22;62605;49.432;8.680;2023-03-01T16:35:07;7.80;1.00
10417;DHT22;62605;49.432;8.680;2023-03-01T16:37:37;7.70;1.00
10417;DHT22;62605;49.432;8.680;2023-03-01T16:40:06;7.60;1.00
10417;DHT22;62605;49.432;8.680;2023-03-01T16:42:38;7.60;1.00
10417;DHT22;62605;49.432;8.680;2023-03-01T16:45:06;7.60;1.00